Flight Track Log - Related Links

Times and Time Zones

All times are in EST time to prevent confusion due to time zone crossing. See the EJA941 flight status page for this flight to view local times or setup timezone preferences in your user account.

Time Position Orientation Groundspeed Altitude Reporting Facility
EST Latitude Longitude Course Direction KTS MPH feet Rate Location/Type
Wed 11:06:10 AM 26.6178 -81.6547 16° North 288 331 7,000  Level Miami Center
Wed 11:08:10 AM 26.8081 -81.7044 347° North 336 387 13,000 2,433 Climbing Miami Center
Wed 11:09:10 AM 26.9183 -81.7183 354° North 365 420 14,300 1,450 Climbing Miami Center
Wed 11:10:00 AM 27.2782 -82.1000 16° North  Level Estimated
Wed 11:10:10 AM 27.0033 -81.7311 352° North 383 441 15,900  Level Miami Center
Wed 11:11:10 AM 27.1258 -81.7503 352° North 389 448 17,800 1,750 Climbing Miami Center
Wed 11:12:10 AM 27.2361 -81.7667 352° North 395 455 19,400 1,650 Climbing Miami Center
Wed 11:13:10 AM 27.3647 -81.7861 352° North 407 468 21,100 1,550 Climbing Miami Center
Wed 11:14:10 AM 27.4811 -81.8028 353° North 418 481 22,500 1,300 Climbing Miami Center
Wed 11:15:10 AM 27.6014 -81.8219 352° North 429 494 23,700 1,250 Climbing Miami Center
Wed 11:16:10 AM 27.7136 -81.8386 353° North 434 499 25,000 1,200 Climbing Miami Center
Wed 11:17:10 AM 27.8403 -81.8558 353° North 443 510 26,100 1,319 Climbing Miami Center
Wed 11:19:21 AM 28.1567 -81.9156 351° North 495 570 29,200 1,382 Climbing Jacksonville Center
Wed 11:20:21 AM 28.2803 -81.9875 333° Northwest 495 570 30,500 1,350 Climbing Jacksonville Center
Wed 11:21:21 AM 28.3956 -82.0808 325° Northwest 491 565 31,900 1,450 Climbing Jacksonville Center
Wed 11:22:21 AM 28.5089 -82.1719 325° Northwest 498 573 33,400 1,500 Climbing Jacksonville Center
Wed 11:23:21 AM 28.6408 -82.2372 337° Northwest 504 580 34,900 1,300 Climbing Jacksonville Center
Wed 11:24:21 AM 28.7747 -82.3003 338° Northwest 509 586 36,000 1,000 Climbing Jacksonville Center
Wed 11:25:21 AM 28.8939 -82.3567 337° Northwest 515 593 36,900 950 Climbing Jacksonville Center
Wed 11:26:21 AM 29.0297 -82.4175 339° North 515 593 37,900 550 Climbing Jacksonville Center
Wed 11:27:21 AM 29.1636 -82.4811 337° Northwest 515 593 38,000 50 Climbing Jacksonville Center
Wed 11:28:21 AM 29.3056 -82.5353 342° North 521 600 38,000  Level Jacksonville Center
Wed 11:29:21 AM 29.4458 -82.5944 340° North 533 613 38,000  Level Jacksonville Center
Wed 11:30:21 AM 29.5836 -82.6561 339° North 528 608 38,000  Level Jacksonville Center
Wed 11:31:21 AM 29.7214 -82.7156 339° North 528 608 38,000  Level Jacksonville Center
Wed 11:32:21 AM 29.8572 -82.7706 341° North 528 608 38,000  Level Jacksonville Center
Wed 11:33:21 AM 30.0056 -82.8325 340° North 523 602 38,000  Level Jacksonville Center
Wed 11:34:21 AM 30.1411 -82.8878 341° North 517 595 38,000  Level Jacksonville Center
Wed 11:35:21 AM 30.2769 -82.9456 340° North 517 595 38,000  Level Jacksonville Center
Wed 11:36:21 AM 30.4106 -83.0033 340° North 511 588 38,000  Level Jacksonville Center
Wed 11:37:21 AM 30.5461 -83.0589 341° North 511 588 38,000  Level Jacksonville Center
Wed 11:38:21 AM 30.6819 -83.1172 340° North 511 588 38,000  Level Jacksonville Center
Wed 11:39:21 AM 30.8153 -83.1731 340° North 511 588 38,000  Level Jacksonville Center
Wed 11:40:21 AM 30.9342 -83.2292 338° Northwest 511 588 38,000  Level Jacksonville Center
Wed 11:41:21 AM 31.0678 -83.2881 339° North 511 588 38,000  Level Jacksonville Center
Wed 11:43:03 AM 31.3044 -83.3950 339° North 543 625 38,000  Level Atlanta Center
Wed 11:44:03 AM 31.4383 -83.4522 340° North 522 601 38,000  Level Atlanta Center
Wed 11:45:03 AM 31.5886 -83.4658 356° North 522 601 38,000  Level Atlanta Center
Wed 11:46:03 AM 31.7264 -83.4725 358° North 539 620 38,000  Level Atlanta Center
Wed 11:47:03 AM 31.8728 -83.5081 348° North 544 626 38,000  Level Atlanta Center
Wed 11:48:03 AM 32.0044 -83.5711 338° Northwest 513 590 38,000  Level Atlanta Center
Wed 11:49:03 AM 32.1342 -83.6367 337° Northwest 513 590 38,000  Level Atlanta Center
Wed 11:50:03 AM 32.2658 -83.7047 336° Northwest 513 590 38,000  Level Atlanta Center
Wed 11:51:03 AM 32.3956 -83.7706 337° Northwest 513 590 38,000  Level Atlanta Center
Wed 11:52:03 AM 32.5250 -83.8394 336° Northwest 513 590 38,000  Level Atlanta Center
Wed 11:53:03 AM 32.6586 -83.9081 337° Northwest 513 590 38,000  Level Atlanta Center
Wed 11:54:03 AM 32.7903 -83.9769 336° Northwest 513 590 38,000  Level Atlanta Center
Wed 11:55:03 AM 32.9197 -84.0414 337° Northwest 513 590 38,000  Level Atlanta Center
Wed 11:56:03 AM 33.0658 -84.1231 335° Northwest 513 590 38,000  Level Atlanta Center
Wed 11:57:03 AM 33.1847 -84.1853 336° Northwest 513 590 38,000  Level Atlanta Center
Wed 11:58:03 AM 33.3161 -84.2525 337° Northwest 521 600 38,000  Level Atlanta Center
Wed 11:59:03 AM 33.4494 -84.3225 336° Northwest 521 600 38,000  Level Atlanta Center
Wed 12:00:03 PM 33.5831 -84.3928 336° Northwest 521 600 38,000  Level Atlanta Center
Wed 12:01:03 PM 33.7164 -84.4608 337° Northwest 515 593 38,000  Level Atlanta Center
Wed 12:02:03 PM 33.8497 -84.5342 335° Northwest 523 602 38,000  Level Atlanta Center
Wed 12:03:03 PM 33.9808 -84.6025 337° Northwest 523 602 38,000  Level Atlanta Center
Wed 12:04:03 PM 34.1078 -84.6811 333° Northwest 512 589 38,000 -550 Level Atlanta Center
Wed 12:05:03 PM 34.2389 -84.7575 334° Northwest 512 589 36,900 -1,600 Descending Atlanta Center
Wed 12:06:03 PM 34.3697 -84.8392 333° Northwest 512 589 34,800 -2,050 Descending Atlanta Center
Wed 12:07:03 PM 34.4944 -84.9133 334° Northwest 507 583 32,800 -2,000 Descending Atlanta Center
Wed 12:08:03 PM 34.6211 -84.9928 333° Northwest 507 583 30,800 -1,727 Descending Atlanta Center
Wed 12:10:28 PM 34.9014 -85.2072 328° Northwest 506 582 26,900 -1,681 Descending Memphis Center
Wed 12:11:30 PM 35.0122 -85.2942 327° Northwest 481 554 25,000 -1,306 Descending Memphis Center
Wed 12:12:32 PM 35.1375 -85.3917 328° Northwest 452 520 24,200 -1,258 Descending Memphis Center
Wed 12:13:34 PM 35.2286 -85.4958 317° Northwest 447 514 22,400 -1,500 Descending Memphis Center
Wed 12:14:36 PM 35.3072 -85.5969 314° West 420 483 21,100 -1,306 Descending Memphis Center
Wed 12:15:38 PM 35.3867 -85.6983 314° West 412 474 19,700 -1,403 Descending Memphis Center
Wed 12:16:40 PM 35.4672 -85.8019 314° West 414 476 18,200 -1,355 Descending Memphis Center
Wed 12:17:42 PM 35.5469 -85.9047 314° West 415 478 16,900 -1,548 Descending Memphis Center
Wed 12:18:44 PM 35.6233 -86.0067 313° West 375 432 15,000 -1,742 Descending Memphis Center
Wed 12:19:46 PM 35.6819 -86.0844 313° West 322 371 13,300 -1,694 Descending Memphis Center
Wed 12:20:48 PM 35.7308 -86.1567 310° West 282 325 11,500 -1,742 Descending Memphis Center
Wed 12:21:50 PM 35.7700 -86.2319 303° West 264 304 9,700 -1,839 Descending Memphis Center
Wed 12:22:52 PM 35.8167 -86.3186 304° West 259 298 7,700 -1,742 Descending Memphis Center
Wed 12:23:54 PM 35.8558 -86.3931 303° West 257 296 6,100 -1,500 Descending Memphis Center
Wed 12:24:56 PM 35.8947 -86.4664 303° West 254 292 4,600 -1,306 Descending Memphis Center
Wed 12:25:58 PM 35.9331 -86.5375 304° West 248 285 3,400 -726 Descending Memphis Center
Wed 12:27:00 PM 35.9661 -86.5997 303° West 222 255 3,100 -242 Descending Memphis Center
Wed 12:28:02 PM 35.9972 -86.6581 303° West 206 237 2,900 -290 Descending Memphis Center
Wed 12:29:04 PM 36.0406 -86.6950 325° Northwest 193 222 2,500 -726 Descending Memphis Center
Wed 12:30:06 PM 36.0819 -86.6803 16° North 166 191 1,400 -919 Descending Memphis Center
Wed 12:31:08 PM 36.1147 -86.6661 19° North 141 162 600 -774 Descending Memphis Center
Wed 12:33:00 PM 36.1167 -86.6667 349° North  Level FlightAware Approximate

Login

Don't have an account? Register now (free) for customized features, flight alerts, and more!